Time;durP1;ratioP1;P1;durP2;ratioP2;P2;SDS_P1;SDS_P2;PMS_P1;PMS_P2;Temp;Humidity;BMP_temperature;BMP_pressure;BME280_temperature;BME280_humidity;BME280_pressure;Samples;Min_cycle;Max_cycle;Signal;HPM_P1;HPM_P2
2022/07/13 00:01:23;;;;;;;1.33;1.20;;;;;;;;;;5062642;28;20413;-66
2022/07/13 00:03:49;;;;;;;0.88;0.85;;;;;;;;;;5070434;28;20032;-66
2022/07/13 00:06:15;;;;;;;1.95;1.30;;;;;;;;;;5065200;28;20425;-67
2022/07/13 00:08:41;;;;;;;0.90;0.90;;;;;;;;;;5068559;28;20396;-66
2022/07/13 00:11:07;;;;;;;1.17;1.10;;;;;;;;;;5052110;28;20755;-67
2022/07/13 00:13:33;;;;;;;1.38;1.00;;;;;;;;;;5050080;28;20048;-66
2022/07/13 00:15:59;;;;;;;1.17;0.82;;;;;;;;;;5050610;28;20049;-67
2022/07/13 00:18:26;;;;;;;0.90;0.90;;;;;;;;;;5050122;28;20609;-66
2022/07/13 00:20:52;;;;;;;1.20;1.10;;;;;;;;;;5060836;28;20048;-67
2022/07/13 00:23:19;;;;;;;1.02;1.00;;;;;;;;;;5069228;28;20132;-64
2022/07/13 00:25:45;;;;;;;1.00;0.98;;;;;;;;;;5060588;28;20122;-67
2022/07/13 00:28:11;;;;;;;0.93;0.90;;;;;;;;;;5061463;28;20103;-65
2022/07/13 00:30:37;;;;;;;0.80;0.80;;;;;;;;;;5049577;28;20390;-67
2022/07/13 00:33:05;;;;;;;0.88;0.88;;;;;;;;;;5050165;28;20052;-66
2022/07/13 00:35:31;;;;;;;1.20;1.10;;;;;;;;;;5051570;28;20106;-67
2022/07/13 00:37:57;;;;;;;0.95;0.93;;;;;;;;;;5069216;28;20401;-67
2022/07/13 00:40:23;;;;;;;1.17;1.00;;;;;;;;;;5070336;28;20056;-60
2022/07/13 00:42:49;;;;;;;1.00;0.95;;;;;;;;;;5070459;28;20051;-67
2022/07/13 00:45:16;;;;;;;1.00;0.90;;;;;;;;;;5070091;28;20470;-67
2022/07/13 00:47:42;;;;;;;0.95;0.90;;;;;;;;;;5069968;28;20044;-67
2022/07/13 00:50:09;;;;;;;1.50;1.00;;;;;;;;;;5069174;28;20041;-67
2022/07/13 00:52:36;;;;;;;1.55;1.10;;;;;;;;;;5069834;28;20067;-65
2022/07/13 00:55:03;;;;;;;1.40;1.10;;;;;;;;;;5069228;28;20145;-65
2022/07/13 00:57:29;;;;;;;1.58;1.00;;;;;;;;;;5069195;28;20041;-68
2022/07/13 00:59:55;;;;;;;1.15;0.82;;;;;;;;;;5070356;28;20130;-67
2022/07/13 01:02:21;;;;;;;0.98;0.88;;;;;;;;;;5070224;28;20090;-68
2022/07/13 01:04:48;;;;;;;0.80;0.80;;;;;;;;;;5068585;28;20127;-66
2022/07/13 01:07:14;;;;;;;1.10;1.00;;;;;;;;;;5069115;28;20049;-68
2022/07/13 01:09:41;;;;;;;1.42;1.02;;;;;;;;;;5068738;28;20040;-68
2022/07/13 01:12:07;;;;;;;1.02;0.85;;;;;;;;;;5070274;28;20049;-66
2022/07/13 01:14:34;;;;;;;1.42;1.23;;;;;;;;;;5069488;28;20044;-65
2022/07/13 01:17:00;;;;;;;0.98;0.90;;;;;;;;;;5070024;28;20045;-66
2022/07/13 01:19:26;;;;;;;0.80;0.80;;;;;;;;;;5069881;28;20063;-61
2022/07/13 01:21:56;;;;;;;0.95;0.93;;;;;;;;;;5068559;28;20040;-67
2022/07/13 01:24:22;;;;;;;1.08;0.90;;;;;;;;;;5068749;28;20370;-66
2022/07/13 01:26:49;;;;;;;0.80;0.80;;;;;;;;;;5069515;28;20117;-68
2022/07/13 01:29:15;;;;;;;0.80;0.80;;;;;;;;;;5068806;28;20135;-68
2022/07/13 01:31:41;;;;;;;2.03;1.00;;;;;;;;;;5069198;28;20080;-68
2022/07/13 01:34:08;;;;;;;1.00;0.85;;;;;;;;;;5069527;28;20495;-66
2022/07/13 01:36:35;;;;;;;0.80;0.80;;;;;;;;;;5068247;28;20110;-68
2022/07/13 01:39:01;;;;;;;1.42;0.95;;;;;;;;;;5069053;28;20053;-68
2022/07/13 01:41:28;;;;;;;0.82;0.82;;;;;;;;;;5070051;28;20127;-67
2022/07/13 01:43:56;;;;;;;0.90;0.85;;;;;;;;;;5070112;28;20041;-67
2022/07/13 01:46:23;;;;;;;1.05;0.95;;;;;;;;;;5088992;28;20099;-68
2022/07/13 01:48:49;;;;;;;1.13;0.98;;;;;;;;;;5073037;28;20044;-69
2022/07/13 01:51:15;;;;;;;1.15;1.00;;;;;;;;;;5072522;28;20041;-68
2022/07/13 01:53:41;;;;;;;1.00;0.90;;;;;;;;;;5071986;28;20123;-68
2022/07/13 01:56:07;;;;;;;0.77;0.77;;;;;;;;;;5073188;28;20055;-69
2022/07/13 01:58:33;;;;;;;0.90;0.88;;;;;;;;;;5072916;28;20052;-62
2022/07/13 02:00:59;;;;;;;1.63;0.90;;;;;;;;;;5073063;28;20055;-67
2022/07/13 02:03:26;;;;;;;0.80;0.80;;;;;;;;;;5065406;28;20119;-67
2022/07/13 02:05:52;;;;;;;0.93;0.82;;;;;;;;;;5059996;28;20628;-66
2022/07/13 02:08:18;;;;;;;1.63;1.00;;;;;;;;;;5072041;28;20576;-68
2022/07/13 02:10:44;;;;;;;1.00;0.90;;;;;;;;;;5072599;28;20051;-68
2022/07/13 02:13:14;;;;;;;0.80;0.80;;;;;;;;;;5073110;28;20048;-68
2022/07/13 02:15:40;;;;;;;1.13;0.90;;;;;;;;;;5072404;28;20087;-68
2022/07/13 02:18:06;;;;;;;1.40;1.00;;;;;;;;;;5072850;28;20582;-66
2022/07/13 02:20:33;;;;;;;1.23;0.85;;;;;;;;;;5072031;28;20136;-68
2022/07/13 02:22:59;;;;;;;0.98;0.80;;;;;;;;;;5071414;28;20061;-67
2022/07/13 02:25:25;;;;;;;0.73;0.70;;;;;;;;;;5072970;28;20119;-67
2022/07/13 02:27:51;;;;;;;0.98;0.90;;;;;;;;;;5071548;28;20446;-66
2022/07/13 02:30:17;;;;;;;1.20;1.00;;;;;;;;;;5071602;28;20049;-67
2022/07/13 02:32:44;;;;;;;1.48;1.00;;;;;;;;;;5070623;28;20040;-67
2022/07/13 02:35:11;;;;;;;0.90;0.90;;;;;;;;;;5052847;28;20037;-68
2022/07/13 02:37:38;;;;;;;0.73;0.73;;;;;;;;;;5052365;28;20122;-61
2022/07/13 02:40:04;;;;;;;1.05;1.00;;;;;;;;;;5069346;28;20044;-65
2022/07/13 02:42:30;;;;;;;1.25;1.00;;;;;;;;;;5072662;28;20116;-67
2022/07/13 02:44:56;;;;;;;1.58;1.40;;;;;;;;;;5071553;28;20591;-66
2022/07/13 02:47:23;;;;;;;1.23;1.00;;;;;;;;;;5072425;28;20043;-67
2022/07/13 02:49:49;;;;;;;1.63;1.02;;;;;;;;;;5070624;28;20098;-65
2022/07/13 02:52:15;;;;;;;0.88;0.88;;;;;;;;;;5071566;28;20048;-67
2022/07/13 02:54:41;;;;;;;1.33;1.00;;;;;;;;;;5070807;28;20119;-67
2022/07/13 02:57:07;;;;;;;0.90;0.70;;;;;;;;;;5071142;28;20041;-68
2022/07/13 02:59:35;;;;;;;0.65;0.65;;;;;;;;;;5072371;28;20052;-67
2022/07/13 03:02:01;;;;;;;0.85;0.80;;;;;;;;;;5071623;28;20044;-65
2022/07/13 03:04:27;;;;;;;1.00;1.00;;;;;;;;;;5060935;28;20048;-65
2022/07/13 03:06:53;;;;;;;1.05;0.95;;;;;;;;;;5050300;28;20049;-67
2022/07/13 03:09:19;;;;;;;1.00;1.00;;;;;;;;;;5051019;28;20044;-67
2022/07/13 03:11:45;;;;;;;1.38;0.90;;;;;;;;;;5051578;28;20048;-67
2022/07/13 03:14:11;;;;;;;1.40;0.85;;;;;;;;;;5051945;28;20037;-67
2022/07/13 03:16:37;;;;;;;1.13;1.00;;;;;;;;;;5064227;28;20442;-68
2022/07/13 03:19:03;;;;;;;1.08;0.98;;;;;;;;;;5071257;28;20465;-67
2022/07/13 03:21:29;;;;;;;1.23;0.93;;;;;;;;;;5070662;28;20131;-67
2022/07/13 03:23:59;;;;;;;0.82;0.82;;;;;;;;;;5070100;28;20385;-67
2022/07/13 03:26:25;;;;;;;1.10;0.85;;;;;;;;;;5071691;28;20071;-67
2022/07/13 03:28:51;;;;;;;0.93;0.93;;;;;;;;;;5071055;28;20040;-67
2022/07/13 03:31:17;;;;;;;1.55;1.02;;;;;;;;;;5071243;28;20067;-67
2022/07/13 03:33:44;;;;;;;1.23;0.90;;;;;;;;;;5070704;28;20036;-62
2022/07/13 03:36:10;;;;;;;1.55;1.20;;;;;;;;;;5069803;28;20054;-67
2022/07/13 03:38:36;;;;;;;1.27;1.02;;;;;;;;;;5070783;28;20056;-67
2022/07/13 03:41:03;;;;;;;1.70;1.20;;;;;;;;;;5070695;28;20626;-67
2022/07/13 03:43:29;;;;;;;0.90;0.80;;;;;;;;;;5071505;28;20048;-67
2022/07/13 03:45:55;;;;;;;2.10;1.23;;;;;;;;;;5070551;28;20052;-67
2022/07/13 03:48:21;;;;;;;0.98;0.90;;;;;;;;;;5069880;28;20394;-67
2022/07/13 03:50:48;;;;;;;1.00;0.90;;;;;;;;;;5069745;28;20059;-66
2022/07/13 03:53:14;;;;;;;1.42;1.00;;;;;;;;;;5066937;28;20040;-68
2022/07/13 03:55:44;;;;;;;1.73;1.10;;;;;;;;;;5062557;28;20051;-67
2022/07/13 03:58:10;;;;;;;0.85;0.85;;;;;;;;;;5070367;28;20106;-68
2022/07/13 04:00:37;;;;;;;0.80;0.80;;;;;;;;;;5070593;28;20048;-65
2022/07/13 04:03:03;;;;;;;0.80;0.80;;;;;;;;;;5070417;28;20896;-66
2022/07/13 04:05:29;;;;;;;1.35;1.10;;;;;;;;;;5052215;28;20123;-67
2022/07/13 04:07:55;;;;;;;1.10;1.00;;;;;;;;;;5068944;28;20408;-66
2022/07/13 04:10:21;;;;;;;1.25;1.13;;;;;;;;;;5070938;28;20045;-67
2022/07/13 04:12:48;;;;;;;1.05;1.00;;;;;;;;;;5070451;28;20036;-67
2022/07/13 04:15:14;;;;;;;1.10;1.00;;;;;;;;;;5070412;28;20072;-67
2022/07/13 04:17:41;;;;;;;1.00;0.80;;;;;;;;;;5070911;28;20389;-67
2022/07/13 04:20:07;;;;;;;1.30;1.00;;;;;;;;;;5069150;28;20095;-64
2022/07/13 04:22:33;;;;;;;1.17;1.00;;;;;;;;;;5069929;28;20554;-64
2022/07/13 04:24:59;;;;;;;1.15;1.00;;;;;;;;;;5069303;28;20590;-67
2022/07/13 04:27:25;;;;;;;1.50;1.02;;;;;;;;;;5070651;28;20037;-65
2022/07/13 04:29:52;;;;;;;1.10;1.00;;;;;;;;;;5070007;28;20040;-68
2022/07/13 04:32:18;;;;;;;1.50;1.00;;;;;;;;;;5069232;28;20044;-67
2022/07/13 04:34:44;;;;;;;0.80;0.80;;;;;;;;;;5070004;28;20043;-67
2022/07/13 04:37:10;;;;;;;1.20;1.00;;;;;;;;;;5069354;28;20119;-67
2022/07/13 04:39:39;;;;;;;1.42;1.00;;;;;;;;;;5069588;28;20055;-67
2022/07/13 04:42:05;;;;;;;1.63;1.35;;;;;;;;;;5070027;28;20127;-67
2022/07/13 04:44:31;;;;;;;0.90;0.90;;;;;;;;;;5070427;28;20041;-66
2022/07/13 04:46:57;;;;;;;1.00;0.90;;;;;;;;;;5069693;28;20047;-66
2022/07/13 04:49:23;;;;;;;1.17;1.08;;;;;;;;;;5070230;28;20040;-67
2022/07/13 04:51:50;;;;;;;1.50;1.05;;;;;;;;;;5068356;28;20048;-61
2022/07/13 04:54:19;;;;;;;0.90;0.90;;;;;;;;;;5069329;28;20052;-66
2022/07/13 04:56:46;;;;;;;1.13;0.80;;;;;;;;;;5070262;28;20048;-65
2022/07/13 04:59:12;;;;;;;0.90;0.90;;;;;;;;;;5069915;28;20059;-65
2022/07/13 05:01:38;;;;;;;1.10;1.00;;;;;;;;;;5067654;28;20036;-65
2022/07/13 05:04:04;;;;;;;2.05;1.33;;;;;;;;;;5069619;28;20036;-64
2022/07/13 05:06:30;;;;;;;0.90;0.90;;;;;;;;;;5068882;28;20127;-66
2022/07/13 05:08:56;;;;;;;0.93;0.90;;;;;;;;;;5068298;28;20048;-65
2022/07/13 05:11:23;;;;;;;0.95;0.90;;;;;;;;;;5070195;28;20055;-67
2022/07/13 05:13:49;;;;;;;1.50;1.17;;;;;;;;;;5069821;28;20083;-61
2022/07/13 05:16:15;;;;;;;1.08;0.98;;;;;;;;;;5069858;28;20085;-67
2022/07/13 05:18:41;;;;;;;1.45;1.10;;;;;;;;;;5069891;28;20102;-66
2022/07/13 05:21:07;;;;;;;1.48;1.00;;;;;;;;;;5072535;28;20045;-66
2022/07/13 05:23:35;;;;;;;1.60;1.20;;;;;;;;;;5073148;28;20055;-67
2022/07/13 05:26:01;;;;;;;1.42;0.93;;;;;;;;;;5073603;28;20051;-65
2022/07/13 05:28:27;;;;;;;1.70;1.00;;;;;;;;;;5073229;28;20127;-67
2022/07/13 05:30:53;;;;;;;1.00;0.90;;;;;;;;;;5072053;28;20087;-67
2022/07/13 05:33:20;;;;;;;1.73;1.00;;;;;;;;;;5073587;28;20468;-67
2022/07/13 05:35:46;;;;;;;1.20;0.90;;;;;;;;;;5072772;28;20056;-67
2022/07/13 05:38:13;;;;;;;1.58;1.20;;;;;;;;;;5072453;28;20051;-66
2022/07/13 05:40:39;;;;;;;1.20;1.02;;;;;;;;;;5073854;28;20040;-67
2022/07/13 05:43:06;;;;;;;1.23;1.00;;;;;;;;;;5073379;28;20044;-67
2022/07/13 05:45:32;;;;;;;1.10;1.00;;;;;;;;;;5073420;28;20041;-65
2022/07/13 05:47:58;;;;;;;1.35;0.90;;;;;;;;;;5072999;28;20127;-67
2022/07/13 05:50:24;;;;;;;1.20;1.10;;;;;;;;;;5072551;28;20067;-67
2022/07/13 05:52:50;;;;;;;1.05;1.00;;;;;;;;;;5072559;28;20051;-61
2022/07/13 05:55:17;;;;;;;1.17;0.90;;;;;;;;;;5072646;28;20128;-67
2022/07/13 05:57:44;;;;;;;0.90;0.90;;;;;;;;;;5073499;28;20044;-67
2022/07/13 06:00:11;;;;;;;1.20;1.10;;;;;;;;;;5072586;28;20041;-67
2022/07/13 06:02:37;;;;;;;0.90;0.90;;;;;;;;;;5073443;28;20065;-67
2022/07/13 06:05:03;;;;;;;1.10;1.00;;;;;;;;;;5072023;28;20473;-63
2022/07/13 06:07:30;;;;;;;0.90;0.90;;;;;;;;;;5073001;28;20123;-67
2022/07/13 06:09:58;;;;;;;1.13;1.00;;;;;;;;;;5085872;28;20067;-67
2022/07/13 06:12:33;;;;;;;1.25;1.10;;;;;;;;;;5072860;28;20090;-67
2022/07/13 06:14:59;;;;;;;0.90;0.90;;;;;;;;;;5072359;28;20461;-67
2022/07/13 06:17:25;;;;;;;1.13;1.00;;;;;;;;;;5072654;28;20119;-67
2022/07/13 06:19:51;;;;;;;1.67;1.08;;;;;;;;;;5072445;28;20041;-67
2022/07/13 06:22:18;;;;;;;1.13;1.00;;;;;;;;;;5070790;28;20524;-68
2022/07/13 06:24:44;;;;;;;1.05;0.90;;;;;;;;;;5072127;28;20049;-67
2022/07/13 06:27:10;;;;;;;1.65;1.05;;;;;;;;;;5072358;28;20113;-67
2022/07/13 06:29:36;;;;;;;1.67;1.00;;;;;;;;;;5072756;28;20044;-68
2022/07/13 06:32:02;;;;;;;2.17;1.10;;;;;;;;;;5072010;28;20051;-67
2022/07/13 06:34:28;;;;;;;1.42;1.00;;;;;;;;;;5072556;28;20041;-67
2022/07/13 06:36:54;;;;;;;0.95;0.90;;;;;;;;;;5071361;28;20061;-61
2022/07/13 06:39:20;;;;;;;1.20;1.05;;;;;;;;;;5071878;28;20048;-68
2022/07/13 06:41:46;;;;;;;0.95;0.90;;;;;;;;;;5071616;28;20413;-67
2022/07/13 06:44:13;;;;;;;1.35;1.05;;;;;;;;;;5069826;28;20486;-68
2022/07/13 06:46:40;;;;;;;0.93;0.82;;;;;;;;;;5072325;28;20052;-65
2022/07/13 06:49:06;;;;;;;1.50;1.30;;;;;;;;;;5071855;28;20135;-66
2022/07/13 06:51:32;;;;;;;1.20;0.75;;;;;;;;;;5071523;28;20051;-68
2022/07/13 06:53:58;;;;;;;1.67;1.17;;;;;;;;;;5070223;28;20558;-65
2022/07/13 06:56:25;;;;;;;1.17;1.08;;;;;;;;;;5072371;28;20090;-66
2022/07/13 06:58:51;;;;;;;0.80;0.80;;;;;;;;;;5072292;28;20032;-67
2022/07/13 07:01:17;;;;;;;3.13;1.23;;;;;;;;;;5070373;28;20044;-67
2022/07/13 07:03:43;;;;;;;1.35;1.17;;;;;;;;;;5071559;28;20075;-67
2022/07/13 07:06:09;;;;;;;1.75;1.35;;;;;;;;;;5070240;28;20040;-68
2022/07/13 07:08:35;;;;;;;1.17;1.00;;;;;;;;;;5052675;28;20420;-69
2022/07/13 07:11:01;;;;;;;1.83;0.93;;;;;;;;;;5082149;28;20441;-69
2022/07/13 07:13:27;;;;;;;1.00;0.90;;;;;;;;;;5070304;28;20367;-69
2022/07/13 07:15:53;;;;;;;0.95;0.82;;;;;;;;;;5086257;28;20084;-69
2022/07/13 07:18:23;;;;;;;1.10;1.00;;;;;;;;;;5070645;28;20045;-69
2022/07/13 07:20:50;;;;;;;1.35;1.15;;;;;;;;;;5069816;28;20041;-68
2022/07/13 07:23:16;;;;;;;1.38;0.90;;;;;;;;;;5068600;28;20140;-63
2022/07/13 07:25:42;;;;;;;1.75;1.05;;;;;;;;;;5070755;28;20524;-69
2022/07/13 07:28:09;;;;;;;1.35;1.05;;;;;;;;;;5068366;28;20112;-69
2022/07/13 07:30:36;;;;;;;1.48;1.00;;;;;;;;;;5068466;28;20051;-68
2022/07/13 07:33:02;;;;;;;2.47;1.10;;;;;;;;;;5068843;28;20060;-62
2022/07/13 07:35:28;;;;;;;1.95;1.02;;;;;;;;;;5068528;28;20040;-67
2022/07/13 07:37:54;;;;;;;1.15;0.90;;;;;;;;;;5068256;28;20037;-66
2022/07/13 07:40:20;;;;;;;1.75;1.10;;;;;;;;;;5066430;28;20071;-66
2022/07/13 07:42:46;;;;;;;1.20;1.10;;;;;;;;;;5062195;28;20040;-68
2022/07/13 07:45:12;;;;;;;1.35;0.80;;;;;;;;;;5066471;28;20132;-66
2022/07/13 07:47:39;;;;;;;1.90;1.00;;;;;;;;;;5064437;28;20492;-68
2022/07/13 07:50:06;;;;;;;1.00;1.00;;;;;;;;;;5062342;28;20040;-65
2022/07/13 07:52:32;;;;;;;1.10;0.90;;;;;;;;;;5069326;28;20474;-68
2022/07/13 07:54:58;;;;;;;1.38;1.10;;;;;;;;;;5050541;28;20482;-69
2022/07/13 07:57:24;;;;;;;1.20;1.00;;;;;;;;;;5068502;28;20119;-68
2022/07/13 07:59:50;;;;;;;1.50;1.17;;;;;;;;;;5053475;28;20040;-71
2022/07/13 08:02:16;;;;;;;2.08;1.20;;;;;;;;;;5052872;28;20052;-70
2022/07/13 08:04:44;;;;;;;1.75;1.15;;;;;;;;;;5069035;28;20116;-71
2022/07/13 08:07:11;;;;;;;1.20;1.05;;;;;;;;;;5067971;28;20059;-71
2022/07/13 08:09:37;;;;;;;1.23;1.00;;;;;;;;;;5058301;28;20052;-67
2022/07/13 08:12:04;;;;;;;1.17;0.98;;;;;;;;;;5062634;28;20136;-63
2022/07/13 08:14:30;;;;;;;3.40;0.95;;;;;;;;;;5061108;28;20048;-68
2022/07/13 08:16:56;;;;;;;2.10;1.10;;;;;;;;;;5069024;28;20044;-70
2022/07/13 08:19:24;;;;;;;2.00;1.48;;;;;;;;;;5068967;28;20607;-69
2022/07/13 08:21:50;;;;;;;1.52;1.40;;;;;;;;;;5068125;28;20508;-68
2022/07/13 08:24:16;;;;;;;2.03;1.10;;;;;;;;;;5069076;28;20052;-70
2022/07/13 08:26:42;;;;;;;2.47;1.10;;;;;;;;;;5070571;28;20062;-70
2022/07/13 08:29:09;;;;;;;3.22;1.73;;;;;;;;;;5069924;28;20481;-66
2022/07/13 08:31:35;;;;;;;3.95;1.50;;;;;;;;;;5070284;28;20033;-68
2022/07/13 08:39:30;;;;;;;7.88;2.78;;;;;;;;;;5049587;28;20045;-66
2022/07/13 08:42:00;;;;;;;6.85;2.70;;;;;;;;;;5057226;28;20135;-68
2022/07/13 08:44:27;;;;;;;6.75;2.72;;;22.40;93.30;;;;;;5055615;28;20306;-62
2022/07/13 08:46:53;;;;;;;7.10;2.92;;;22.60;93.20;;;;;;5070355;28;20119;-67
2022/07/13 08:49:20;;;;;;;6.45;3.20;;;22.70;93.40;;;;;;5070161;28;20111;-69
2022/07/13 08:51:47;;;;;;;7.35;3.35;;;22.80;93.50;;;;;;5069425;28;20032;-68
2022/07/13 08:54:13;;;;;;;7.40;3.00;;;22.80;93.50;;;;;;5068078;28;20047;-69
2022/07/13 08:56:41;;;;;;;8.25;2.70;;;22.80;93.50;;;;;;5070274;28;20385;-70
2022/07/13 08:59:07;;;;;;;6.00;2.70;;;22.90;93.50;;;;;;5070415;28;20056;-61
2022/07/13 09:01:33;;;;;;;4.68;2.50;;;22.90;93.50;;;;;;5069717;28;20041;-68
2022/07/13 09:04:00;;;;;;;4.63;2.17;;;22.90;93.50;;;;;;5065790;28;20036;-66
2022/07/13 09:06:45;;;;;;;6.00;2.53;;;22.80;93.60;;;;;;5048536;28;20060;-66
2022/07/13 09:09:46;;;;;;;7.68;2.65;;;22.90;93.70;;;;;;5054487;28;20489;-66
2022/07/13 09:12:15;;;;;;;6.05;2.70;;;22.90;93.70;;;;;;5026646;28;20095;-69
2022/07/13 09:14:41;;;;;;;5.50;2.25;;;22.90;93.70;;;;;;5052318;28;20045;-69
2022/07/13 09:17:07;;;;;;;7.03;2.83;;;22.80;93.60;;;;;;5063484;28;20078;-61
2022/07/13 09:19:35;;;;;;;5.55;2.65;;;22.80;93.60;;;;;;5069602;28;20052;-69
2022/07/13 09:22:11;;;;;;;6.15;2.58;;;22.80;93.60;;;;;;5059095;28;20041;-69
2022/07/13 09:24:47;;;;;;;4.68;2.72;;;22.80;93.60;;;;;;5067223;28;20443;-68
2022/07/13 09:27:14;;;;;;;6.90;2.22;;;22.80;93.70;;;;;;5069762;28;20131;-67
2022/07/13 09:29:40;;;;;;;6.22;3.30;;;22.80;93.70;;;;;;5070041;28;20470;-66
2022/07/13 09:32:09;;;;;;;4.00;2.28;;;22.80;93.70;;;;;;5069899;28;20036;-66
2022/07/13 09:34:53;;;;;;;4.72;2.47;;;22.80;93.70;;;;;;5069308;28;20124;-63
2022/07/13 09:37:27;;;;;;;4.20;2.40;;;22.80;93.70;;;;;;5065121;28;20266;-66
2022/07/13 09:39:58;;;;;;;4.75;2.63;;;22.80;93.70;;;;;;5067986;28;20054;-66
2022/07/13 09:42:32;;;;;;;3.28;2.10;;;22.80;93.80;;;;;;5069920;28;20359;-66
2022/07/13 09:47:56;;;;;;;4.28;2.10;;;22.80;93.80;;;;;;5070112;28;20440;-66
2022/07/13 09:50:37;;;;;;;6.50;2.72;;;22.80;93.80;;;;;;5067971;28;20041;-65
2022/07/13 09:53:22;;;;;;;5.30;2.45;;;22.80;93.80;;;;;;5067592;28;20047;-66
2022/07/13 09:55:51;;;;;;;6.13;2.63;;;22.80;93.90;;;;;;5068889;28;20037;-64
2022/07/13 09:58:20;;;;;;;5.80;2.67;;;22.80;93.90;;;;;;5068464;28;20048;-65
2022/07/13 10:00:46;;;;;;;4.72;2.25;;;22.80;93.90;;;;;;5066877;28;20040;-65
2022/07/13 10:03:12;;;;;;;5.63;2.55;;;22.80;93.90;;;;;;5065040;28;20045;-59
2022/07/13 10:05:38;;;;;;;5.00;2.40;;;22.80;94.00;;;;;;5068158;28;20043;-65
2022/07/13 10:08:04;;;;;;;6.43;2.28;;;22.80;94.00;;;;;;5070659;28;20040;-64
2022/07/13 10:10:30;;;;;;;5.15;2.40;;;22.80;94.00;;;;;;5070309;28;20102;-66
2022/07/13 10:13:05;;;;;;;6.20;2.38;;;22.80;94.00;;;;;;5062308;28;20056;-66
2022/07/13 10:15:30;;;;;;;4.38;2.17;;;22.80;94.00;;;;;;5061630;28;20440;-66
2022/07/13 10:17:58;;;;;;;11.82;3.50;;;22.80;94.10;;;;;;5067201;28;20094;-61
2022/07/13 10:20:25;;;;;;;3.97;2.17;;;22.80;94.10;;;;;;5055656;28;20080;-66
2022/07/13 10:22:51;;;;;;;9.63;2.40;;;22.80;94.10;;;;;;5064015;28;20479;-63
2022/07/13 10:25:18;;;;;;;3.63;2.22;;;22.80;94.10;;;;;;5055011;28;20062;-66
2022/07/13 10:27:44;;;;;;;3.97;1.95;;;22.80;94.10;;;;;;5059637;28;20047;-66
2022/07/13 10:30:19;;;;;;;4.63;2.30;;;22.80;94.10;;;;;;5072111;28;20044;-65
2022/07/13 10:32:46;;;;;;;3.22;2.05;;;22.70;94.10;;;;;;5061398;28;20053;-66
2022/07/13 10:35:16;;;;;;;3.88;2.08;;;22.80;94.20;;;;;;5055811;28;20049;-65
2022/07/13 10:37:58;;;;;;;3.72;2.10;;;22.80;94.20;;;;;;5072030;28;20048;-66
2022/07/13 10:40:28;;;;;;;3.53;2.08;;;22.80;94.20;;;;;;5070520;28;20044;-66
2022/07/13 10:42:54;;;;;;;2.90;1.75;;;22.70;94.20;;;;;;5072754;28;20044;-64
2022/07/13 10:45:38;;;;;;;3.50;2.10;;;22.70;94.20;;;;;;5070265;28;20045;-64
2022/07/13 10:48:06;;;;;;;5.38;2.22;;;22.80;94.20;;;;;;5071454;28;20049;-66
2022/07/13 10:50:54;;;;;;;3.60;1.90;;;22.70;94.20;;;;;;5070917;28;20064;-65
2022/07/13 10:53:45;;;;;;;3.15;1.80;;;22.80;94.30;;;;;;5070993;28;20060;-65
2022/07/13 10:56:19;;;;;;;4.07;2.00;;;22.70;94.20;;;;;;5072185;28;20123;-65
2022/07/13 10:58:46;;;;;;;3.88;1.92;;;22.70;94.20;;;;;;5072161;28;20040;-65
2022/07/13 11:01:31;;;;;;;3.08;1.92;;;22.70;94.20;;;;;;5065540;28;20036;-65
2022/07/13 11:03:57;;;;;;;5.43;2.25;;;22.80;94.30;;;;;;5061892;28;20108;-66
2022/07/13 11:06:24;;;;;;;4.55;2.00;;;22.70;94.20;;;;;;5069816;28;20119;-66
2022/07/13 11:09:14;;;;;;;3.08;1.90;;;22.70;94.20;;;;;;5070682;28;20542;-66
2022/07/13 11:11:45;;;;;;;3.55;1.98;;;22.80;94.30;;;;;;5068366;28;20112;-66
2022/07/13 11:14:39;;;;;;;3.47;2.00;;;22.70;94.20;;;;;;5072040;28;20078;-65
2022/07/13 11:17:12;;;;;;;4.50;2.30;;;22.80;94.30;;;;;;5065304;28;20049;-66
2022/07/13 11:19:54;;;;;;;3.92;2.10;;;22.70;94.20;;;;;;5071019;28;20059;-63
2022/07/13 11:22:22;;;;;;;2.75;1.90;;;22.70;94.30;;;;;;5070853;28;20047;-60
2022/07/13 11:25:14;;;;;;;4.63;2.30;;;22.80;94.40;;;;;;5070586;28;20223;-63
2022/07/13 11:28:05;;;;;;;4.28;1.80;;;22.80;94.40;;;;;;5071390;28;20091;-66
2022/07/13 11:30:35;;;;;;;4.80;2.30;;;22.80;94.30;;;;;;5068495;28;20049;-66
2022/07/13 11:33:01;;;;;;;4.47;2.38;;;22.80;94.30;;;;;;5072281;28;20417;-66
2022/07/13 11:35:27;;;;;;;3.45;1.77;;;22.80;94.30;;;;;;5069212;28;20074;-66
2022/07/13 11:37:53;;;;;;;4.60;2.00;;;22.80;94.30;;;;;;5071566;28;20052;-61
2022/07/13 11:40:45;;;;;;;3.17;2.20;;;22.80;94.30;;;;;;5071552;28;20048;-66
2022/07/13 11:43:12;;;;;;;5.22;3.03;;;22.80;94.20;;;;;;5069588;28;20052;-66
2022/07/13 11:45:40;;;;;;;3.70;2.00;;;22.80;94.30;;;;;;5071168;28;20044;-66
2022/07/13 11:48:09;;;;;;;4.03;1.90;;;22.80;94.50;;;;;;5071101;28;20500;-66
2022/07/13 11:50:48;;;;;;;4.90;2.20;;;22.80;94.30;;;;;;5070327;28;20040;-66
2022/07/13 11:53:27;;;;;;;2.20;1.80;;;22.80;94.30;;;;;;5071008;28;20050;-66
2022/07/13 11:55:57;;;;;;;4.43;2.40;;;22.80;94.20;;;;;;5070957;28;20056;-65
2022/07/13 11:58:26;;;;;;;5.28;2.72;;;22.70;94.20;;;;;;5071738;28;20131;-59
2022/07/13 12:00:52;;;;;;;3.60;1.98;;;22.80;94.20;;;;;;5071440;28;20084;-65
2022/07/13 12:03:25;;;;;;;3.95;1.92;;;22.70;94.20;;;;;;5071608;28;20080;-64
2022/07/13 12:05:52;;;;;;;4.03;2.15;;;22.80;94.20;;;;;;5069015;28;20408;-66
2022/07/13 12:08:17;;;;;;;5.10;2.00;;;22.80;94.30;;;;;;5070123;28;20079;-66
2022/07/13 12:10:43;;;;;;;4.57;2.33;;;22.80;94.30;;;;;;5071165;28;20541;-66
2022/07/13 12:13:09;;;;;;;3.88;2.13;;;22.70;94.20;;;;;;5071554;28;20044;-66
2022/07/13 12:15:35;;;;;;;2.92;1.88;;;22.80;94.20;;;;;;5070504;28;20135;-66
2022/07/13 12:18:04;;;;;;;3.70;2.00;;;22.70;94.20;;;;;;5071240;28;20045;-66
2022/07/13 12:20:33;;;;;;;3.10;1.92;;;22.70;94.20;;;;;;5069788;28;20091;-64
2022/07/13 12:22:59;;;;;;;4.03;2.20;;;22.70;94.20;;;;;;5070312;28;20052;-66
2022/07/13 12:25:29;;;;;;;6.18;2.58;;;22.70;94.20;;;;;;5071186;28;20076;-66
2022/07/13 12:27:57;;;;;;;4.22;2.35;;;22.70;94.20;;;;;;5070620;28;20040;-66
2022/07/13 12:30:23;;;;;;;3.90;2.00;;;22.70;94.20;;;;;;5071011;28;20390;-66
2022/07/13 12:32:58;;;;;;;3.53;1.90;;;22.80;94.30;;;;;;5069429;28;20040;-67
2022/07/13 12:35:31;;;;;;;4.35;1.70;;;22.80;94.20;;;;;;5069850;28;20063;-66
2022/07/13 12:37:59;;;;;;;2.95;2.00;;;22.70;94.20;;;;;;5070221;28;20044;-64
2022/07/13 12:40:55;;;;;;;4.03;2.00;;;22.70;94.20;;;;;;5071166;28;20044;-66
2022/07/13 12:43:29;;;;;;;4.50;2.00;;;22.70;94.20;;;;;;5066460;28;20052;-66
2022/07/13 12:46:01;;;;;;;2.45;1.63;;;22.70;94.20;;;;;;5070702;28;20041;-66
2022/07/13 12:48:32;;;;;;;4.57;2.03;;;22.70;94.20;;;;;;5070826;28;20226;-66
2022/07/13 12:50:59;;;;;;;2.72;1.70;;;22.70;94.20;;;;;;5069968;28;20048;-65
2022/07/13 12:53:26;;;;;;;3.63;2.13;;;22.70;94.20;;;;;;5069921;28;20542;-66
2022/07/13 12:55:57;;;;;;;3.35;1.80;;;22.70;94.10;;;;;;5069903;28;20103;-66
2022/07/13 12:58:40;;;;;;;4.25;2.25;;;22.70;94.10;;;;;;5070946;28;20036;-66
2022/07/13 13:01:07;;;;;;;2.72;1.63;;;22.70;94.10;;;;;;5070621;28;20131;-66
2022/07/13 13:03:32;;;;;;;3.40;2.00;;;22.70;94.20;;;;;;5070335;28;20367;-60
2022/07/13 13:05:58;;;;;;;4.50;1.90;;;22.70;94.10;;;;;;5069573;28;20127;-66
2022/07/13 13:08:24;;;;;;;2.60;1.60;;;22.70;94.10;;;;;;5069893;28;20087;-65
2022/07/13 13:10:50;;;;;;;3.97;2.03;;;22.70;94.10;;;;;;5070292;28;20084;-66
2022/07/13 13:13:15;;;;;;;3.28;1.90;;;22.70;94.10;;;;;;5070775;28;20045;-63
2022/07/13 13:15:41;;;;;;;3.83;1.90;;;22.70;94.10;;;;;;5069830;28;20079;-66
2022/07/13 13:18:07;;;;;;;2.72;1.58;;;22.70;94.10;;;;;;5070319;28;20048;-61
2022/07/13 13:20:32;;;;;;;3.92;1.90;;;22.70;94.10;;;;;;5069258;28;20051;-59
2022/07/13 13:22:58;;;;;;;4.05;1.98;;;22.70;94.10;;;;;;5069281;28;20139;-63
2022/07/13 13:25:24;;;;;;;2.78;1.83;;;22.70;94.10;;;;;;5070552;28;20036;-66
2022/07/13 13:27:50;;;;;;;2.80;1.70;;;22.70;94.10;;;;;;5070201;28;20087;-66
2022/07/13 13:32:59;;;;;;;3.25;1.88;;;22.70;94.10;;;;;;5070214;28;20060;-66
2022/07/13 13:35:25;;;;;;;2.50;1.85;;;22.70;94.10;;;;;;5084873;28;20147;-66
2022/07/13 13:37:51;;;;;;;2.53;1.55;;;22.70;94.10;;;;;;5069632;28;20651;-64
2022/07/13 13:40:17;;;;;;;2.97;1.90;;;22.70;94.10;;;;;;5071157;28;20050;-65
2022/07/13 13:42:42;;;;;;;2.42;1.55;;;22.70;94.10;;;;;;5074213;28;20385;-66
2022/07/13 13:45:10;;;;;;;2.92;1.65;;;22.70;94.00;;;;;;5071815;28;20041;-66
2022/07/13 13:47:36;;;;;;;2.50;1.50;;;22.70;94.00;;;;;;5074076;28;20048;-59
2022/07/13 13:50:03;;;;;;;2.70;1.77;;;22.70;94.00;;;;;;5073529;28;20466;-64
2022/07/13 13:52:28;;;;;;;4.63;1.90;;;22.70;94.00;;;;;;5072291;28;20454;-62
2022/07/13 13:54:54;;;;;;;2.75;1.75;;;22.70;94.00;;;;;;5062611;28;20025;-64
2022/07/13 13:57:20;;;;;;;5.20;2.30;;;22.80;94.00;;;;;;5057491;28;20124;-64
2022/07/13 13:59:46;;;;;;;2.20;1.80;;;22.80;93.90;;;;;;5062930;28;20044;-63
2022/07/13 14:02:11;;;;;;;3.60;1.90;;;22.90;93.80;;;;;;5058847;28;20097;-65
2022/07/13 14:04:38;;;;;;;3.40;1.95;;;22.90;93.70;;;;;;5075548;28;20421;-59
2022/07/13 14:07:04;;;;;;;3.05;1.95;;;22.90;93.70;;;;;;5063558;28;20067;-63
2022/07/13 14:09:29;;;;;;;4.22;2.17;;;22.90;93.60;;;;;;5056695;28;20040;-65